SAVC/CRD METAR and TAF weather

Enter ICAO airport designator
Station Type Date Time Source
SAVC METAR 2020/07/10 14:00 UTC NOAA

SAVC 101400Z 27010KT CAVOK 04/M09 Q1004


Station Type Date Time Source
SAVC Decoded METAR 2020/07/10 14:00 UTC NOAA

Comodoro Rivadavia Aerodrome, Argentina (SAVC) 45-47S 067-30W 46M
Jul 10, 2020 - 10:00 AM EDT / 2020.07.10 1400 UTC
Wind: from the W (270 degrees) at 12 MPH (10 KT):0
Visibility: greater than 7 mile(s):0
Temperature: 39 F (4 C)
Dew Point: 15 F (-9 C)
Relative Humidity: 38%
Pressure (altimeter): 29.65 in. Hg (1004 hPa)
ob: SAVC 101400Z 27010KT CAVOK 04/M09 Q1004
cycle: 14

Station Type Date Time Source
SAVC TAF 2020/07/10 12:03 UTC NOAA

TAF TAF SAVC 101100Z 1012/1112 28010KT CAVOK TX08/1018Z TN01/1011Z
BECMG 1017/1019 28020KT
TEMPO 1100/1103 VRB10KT 9999 SCT030 BKN040
BECMG 1106/1108 27020G35KT CAVOK

Example: see airport list